Impacts TAF Board INFO
FOR SITUATIONAL AWARENESS. NOT TO BE USED FOR FLIGHT PLANNING PURPOSES.
IDs:

KORD - Chicago/O'Hare Intl, IL, US

Issued at 0524 UTC 18 Dec 2017
Updated at 0851 UTC 18 Dec 2017
Potential Impact None Slight Moderate High
Time<<18/21Z 18/22Z 18/23Z 19/00Z 19/01Z 19/02Z 19/03Z 19/04Z 19/05Z 19/06Z 19/07Z 19/08Z 19/09Z>>
Type PRVL PRVL PRVL PRVL PRVL PRVL PRVL PRVL PRVL PRVL PRVL PRVL PRVL
VIS >6 >6 >6 >6 >6 >6 >6 >6 >6 >6 >6 >6 >6
CIG 25 25 25 -- -- -- -- -- -- -- -- -- --
Cover BKN BKN BKN SKC SKC SKC SKC SKC SKC SKC SKC SKC SKC
FltCat MVFR MVFR MVFR VFR VFR VFR VFR VFR VFR VFR VFR VFR VFR
WX -- -- -- -- -- -- -- -- -- -- -- -- --
WDir 240 240 240 220 220 220 220 220 220 220 220 220 220
WSpd 10 10 10 12 12 12 12 12 12 12 12 12 12
WGst -- -- -- -- -- -- -- -- -- -- -- -- --

Raw TAF
KORD 180524Z 1806/1912 22005KT P6SM OVC025
  FM180730 22005KT 6SM BR OVC015
  FM180900 24007KT 4SM -DZ BR OVC007
  TEMPO 1810/1814 1SM -DZ BR
  FM181700 24011KT P6SM OVC015
  FM182000 24010KT P6SM BKN025
  FM190000 22012KT P6SM SKC WS020/27045KT


METAR Board
Radar Display
Forecast Discussion

FOR SITUATIONAL AWARENESS. NOT TO BE USED FOR FLIGHT PLANNING PURPOSES.